sensor_id;sensor_type;location;lat;lon;timestamp;pressure;altitude;pressure_sealevel;temperature;humidity
12775;BME280;6451;42.630;23.382;2022-10-31T00:01:23;94873.56;;;14.63;93.21
12775;BME280;6451;42.630;23.382;2022-10-31T00:03:52;94859.13;;;14.82;91.63
12775;BME280;6451;42.630;23.382;2022-10-31T00:06:20;94868.97;;;14.86;91.85
12775;BME280;6451;42.630;23.382;2022-10-31T00:08:52;94858.84;;;14.87;92.09
12775;BME280;6451;42.630;23.382;2022-10-31T00:11:21;94845.63;;;14.69;92.96
12775;BME280;6451;42.630;23.382;2022-10-31T00:13:48;94870.72;;;14.75;94.17
12775;BME280;6451;42.630;23.382;2022-10-31T00:16:17;94795.84;;;14.22;94.73
12775;BME280;6451;42.630;23.382;2022-10-31T00:18:47;94869.13;;;14.74;95.19
12775;BME280;6451;42.630;23.382;2022-10-31T00:21:18;94865.53;;;14.89;93.78
12775;BME280;6451;42.630;23.382;2022-10-31T00:23:45;94815.31;;;14.39;95.52
12775;BME280;6451;42.630;23.382;2022-10-31T00:26:14;94863.66;;;14.19;99.68
12775;BME280;6451;42.630;23.382;2022-10-31T00:28:41;94867.47;;;13.99;100.00
12775;BME280;6451;42.630;23.382;2022-10-31T00:31:09;94859.59;;;13.62;100.00
12775;BME280;6451;42.630;23.382;2022-10-31T00:33:39;94746.22;;;12.83;100.00
12775;BME280;6451;42.630;23.382;2022-10-31T00:36:14;94828.38;;;13.28;100.00
12775;BME280;6451;42.630;23.382;2022-10-31T00:38:44;94867.34;;;13.60;100.00
12775;BME280;6451;42.630;23.382;2022-10-31T00:41:13;94852.81;;;13.41;100.00
12775;BME280;6451;42.630;23.382;2022-10-31T00:43:44;94861.63;;;13.50;100.00
12775;BME280;6451;42.630;23.382;2022-10-31T00:46:12;94867.16;;;13.53;100.00
12775;BME280;6451;42.630;23.382;2022-10-31T00:48:40;94870.59;;;13.50;100.00
12775;BME280;6451;42.630;23.382;2022-10-31T00:51:07;94866.72;;;13.51;100.00
12775;BME280;6451;42.630;23.382;2022-10-31T00:53:34;94867.16;;;13.38;100.00
12775;BME280;6451;42.630;23.382;2022-10-31T00:56:04;94869.53;;;13.39;100.00
12775;BME280;6451;42.630;23.382;2022-10-31T00:58:34;94836.94;;;13.15;100.00
12775;BME280;6451;42.630;23.382;2022-10-31T01:01:01;94815.78;;;12.80;100.00
12775;BME280;6451;42.630;23.382;2022-10-31T01:03:32;94859.28;;;12.76;100.00
12775;BME280;6451;42.630;23.382;2022-10-31T01:06:01;94873.38;;;12.94;100.00
12775;BME280;6451;42.630;23.382;2022-10-31T01:08:28;94869.06;;;12.93;100.00
12775;BME280;6451;42.630;23.382;2022-10-31T01:11:06;94871.59;;;12.86;100.00
12775;BME280;6451;42.630;23.382;2022-10-31T01:13:34;94846.00;;;12.47;100.00
12775;BME280;6451;42.630;23.382;2022-10-31T01:16:02;94865.44;;;12.61;100.00
12775;BME280;6451;42.630;23.382;2022-10-31T01:18:29;94871.66;;;12.74;100.00
12775;BME280;6451;42.630;23.382;2022-10-31T01:21:00;94841.69;;;12.46;100.00
12775;BME280;6451;42.630;23.382;2022-10-31T01:23:28;94889.31;;;12.52;100.00
12775;BME280;6451;42.630;23.382;2022-10-31T01:26:03;94891.97;;;12.36;100.00
12775;BME280;6451;42.630;23.382;2022-10-31T01:28:33;94883.31;;;12.34;100.00
12775;BME280;6451;42.630;23.382;2022-10-31T01:31:01;94888.19;;;12.41;100.00
12775;BME280;6451;42.630;23.382;2022-10-31T01:33:28;94886.75;;;12.19;100.00
12775;BME280;6451;42.630;23.382;2022-10-31T01:35:57;94842.03;;;12.04;100.00
12775;BME280;6451;42.630;23.382;2022-10-31T01:38:24;94840.03;;;11.89;100.00
12775;BME280;6451;42.630;23.382;2022-10-31T01:40:51;94864.66;;;12.20;100.00
12775;BME280;6451;42.630;23.382;2022-10-31T01:43:18;94831.72;;;11.98;100.00
12775;BME280;6451;42.630;23.382;2022-10-31T01:45:51;94847.44;;;12.16;100.00
12775;BME280;6451;42.630;23.382;2022-10-31T01:48:24;94881.88;;;12.24;100.00
12775;BME280;6451;42.630;23.382;2022-10-31T01:50:56;94894.69;;;12.24;100.00
12775;BME280;6451;42.630;23.382;2022-10-31T01:53:33;94896.75;;;12.27;100.00
12775;BME280;6451;42.630;23.382;2022-10-31T01:56:04;94891.84;;;12.33;100.00
12775;BME280;6451;42.630;23.382;2022-10-31T01:58:31;94871.34;;;12.23;100.00
12775;BME280;6451;42.630;23.382;2022-10-31T02:01:04;94884.25;;;12.38;100.00
12775;BME280;6451;42.630;23.382;2022-10-31T02:03:31;94890.19;;;12.56;100.00
12775;BME280;6451;42.630;23.382;2022-10-31T02:06:06;94871.72;;;12.49;100.00
12775;BME280;6451;42.630;23.382;2022-10-31T02:08:35;94865.25;;;12.54;100.00
12775;BME280;6451;42.630;23.382;2022-10-31T02:11:04;94890.44;;;12.51;100.00
12775;BME280;6451;42.630;23.382;2022-10-31T02:13:33;94887.59;;;12.47;100.00
12775;BME280;6451;42.630;23.382;2022-10-31T02:16:00;94888.41;;;12.48;100.00
12775;BME280;6451;42.630;23.382;2022-10-31T02:18:30;94889.75;;;12.54;100.00
12775;BME280;6451;42.630;23.382;2022-10-31T02:21:07;94869.00;;;12.49;100.00
12775;BME280;6451;42.630;23.382;2022-10-31T02:27:02;94895.25;;;12.70;100.00
12775;BME280;6451;42.630;23.382;2022-10-31T02:30:03;94898.56;;;12.63;100.00
12775;BME280;6451;42.630;23.382;2022-10-31T02:32:41;94899.41;;;12.51;100.00
12775;BME280;6451;42.630;23.382;2022-10-31T02:35:13;94904.16;;;12.55;100.00
12775;BME280;6451;42.630;23.382;2022-10-31T02:37:49;94856.13;;;12.34;100.00
12775;BME280;6451;42.630;23.382;2022-10-31T02:40:24;94895.69;;;12.72;100.00
12775;BME280;6451;42.630;23.382;2022-10-31T02:43:03;94865.81;;;12.60;100.00
12775;BME280;6451;42.630;23.382;2022-10-31T02:45:37;94895.69;;;12.72;100.00
12775;BME280;6451;42.630;23.382;2022-10-31T02:48:09;94915.16;;;12.86;100.00
12775;BME280;6451;42.630;23.382;2022-10-31T02:50:40;94914.69;;;12.96;100.00
12775;BME280;6451;42.630;23.382;2022-10-31T02:53:08;94903.44;;;12.98;100.00
12775;BME280;6451;42.630;23.382;2022-10-31T02:55:54;94902.59;;;13.09;100.00
12775;BME280;6451;42.630;23.382;2022-10-31T02:58:26;94910.75;;;13.22;100.00
12775;BME280;6451;42.630;23.382;2022-10-31T03:04:04;94893.50;;;12.90;100.00
12775;BME280;6451;42.630;23.382;2022-10-31T03:06:41;94921.56;;;13.06;100.00
12775;BME280;6451;42.630;23.382;2022-10-31T03:09:23;94907.06;;;12.74;100.00
12775;BME280;6451;42.630;23.382;2022-10-31T03:11:58;94922.75;;;12.93;100.00
12775;BME280;6451;42.630;23.382;2022-10-31T03:14:37;94913.34;;;12.90;100.00
12775;BME280;6451;42.630;23.382;2022-10-31T03:17:08;94903.69;;;12.93;100.00
12775;BME280;6451;42.630;23.382;2022-10-31T03:19:54;94906.25;;;13.01;100.00
12775;BME280;6451;42.630;23.382;2022-10-31T03:22:32;94846.34;;;12.45;100.00
12775;BME280;6451;42.630;23.382;2022-10-31T03:25:01;94914.13;;;12.91;100.00
12775;BME280;6451;42.630;23.382;2022-10-31T03:27:33;94922.16;;;12.99;100.00
12775;BME280;6451;42.630;23.382;2022-10-31T03:30:05;94903.34;;;12.66;100.00
12775;BME280;6451;42.630;23.382;2022-10-31T03:32:36;94913.81;;;12.52;100.00
12775;BME280;6451;42.630;23.382;2022-10-31T03:35:08;94928.78;;;12.46;100.00
12775;BME280;6451;42.630;23.382;2022-10-31T03:37:37;94908.75;;;12.26;100.00
12775;BME280;6451;42.630;23.382;2022-10-31T03:40:08;94918.13;;;12.41;100.00
12775;BME280;6451;42.630;23.382;2022-10-31T03:42:39;94933.00;;;12.43;100.00
12775;BME280;6451;42.630;23.382;2022-10-31T03:45:11;94919.97;;;12.37;100.00
12775;BME280;6451;42.630;23.382;2022-10-31T03:47:41;94912.47;;;12.34;100.00
12775;BME280;6451;42.630;23.382;2022-10-31T03:50:14;94938.06;;;12.57;100.00
12775;BME280;6451;42.630;23.382;2022-10-31T03:52:45;94937.81;;;12.62;100.00
12775;BME280;6451;42.630;23.382;2022-10-31T03:55:18;94891.31;;;12.27;100.00
12775;BME280;6451;42.630;23.382;2022-10-31T03:57:50;94943.28;;;12.62;100.00
12775;BME280;6451;42.630;23.382;2022-10-31T04:00:18;94919.84;;;12.45;100.00
12775;BME280;6451;42.630;23.382;2022-10-31T04:02:50;94943.06;;;12.55;100.00
12775;BME280;6451;42.630;23.382;2022-10-31T04:05:26;94950.44;;;12.55;100.00
12775;BME280;6451;42.630;23.382;2022-10-31T04:07:55;94927.47;;;12.28;100.00
12775;BME280;6451;42.630;23.382;2022-10-31T04:10:24;94955.69;;;12.35;100.00
12775;BME280;6451;42.630;23.382;2022-10-31T04:12:57;94728.38;;;10.84;100.00
12775;BME280;6451;42.630;23.382;2022-10-31T04:15:25;94957.16;;;12.33;100.00
12775;BME280;6451;42.630;23.382;2022-10-31T04:17:55;94959.34;;;12.27;100.00
12775;BME280;6451;42.630;23.382;2022-10-31T04:20:36;94953.41;;;12.25;100.00
12775;BME280;6451;42.630;23.382;2022-10-31T04:23:04;94963.16;;;12.26;100.00
12775;BME280;6451;42.630;23.382;2022-10-31T04:25:31;94914.66;;;12.04;100.00
12775;BME280;6451;42.630;23.382;2022-10-31T04:27:58;94958.41;;;12.35;100.00
12775;BME280;6451;42.630;23.382;2022-10-31T04:30:25;94963.03;;;12.47;100.00
12775;BME280;6451;42.630;23.382;2022-10-31T04:32:53;94947.16;;;12.49;100.00
12775;BME280;6451;42.630;23.382;2022-10-31T04:35:20;94954.72;;;12.56;100.00
12775;BME280;6451;42.630;23.382;2022-10-31T04:37:48;94946.56;;;12.56;100.00
12775;BME280;6451;42.630;23.382;2022-10-31T04:40:15;94947.84;;;12.34;100.00
12775;BME280;6451;42.630;23.382;2022-10-31T04:42:42;94931.53;;;12.34;100.00
12775;BME280;6451;42.630;23.382;2022-10-31T04:45:09;94953.50;;;12.53;100.00
12775;BME280;6451;42.630;23.382;2022-10-31T04:47:36;94963.69;;;12.56;100.00
12775;BME280;6451;42.630;23.382;2022-10-31T04:50:03;94958.72;;;12.46;100.00
12775;BME280;6451;42.630;23.382;2022-10-31T04:52:31;94940.69;;;12.41;100.00
12775;BME280;6451;42.630;23.382;2022-10-31T04:55:00;94906.50;;;11.91;100.00
12775;BME280;6451;42.630;23.382;2022-10-31T04:57:27;94934.50;;;12.16;100.00
12775;BME280;6451;42.630;23.382;2022-10-31T04:59:53;94968.72;;;12.30;100.00
12775;BME280;6451;42.630;23.382;2022-10-31T05:02:20;94981.19;;;12.18;100.00
12775;BME280;6451;42.630;23.382;2022-10-31T05:04:47;94854.91;;;11.22;100.00
12775;BME280;6451;42.630;23.382;2022-10-31T05:07:14;94981.88;;;12.15;100.00
12775;BME280;6451;42.630;23.382;2022-10-31T05:09:41;94967.81;;;12.25;100.00
12775;BME280;6451;42.630;23.382;2022-10-31T05:12:09;94974.84;;;12.39;100.00
12775;BME280;6451;42.630;23.382;2022-10-31T05:14:37;94984.94;;;12.50;100.00
12775;BME280;6451;42.630;23.382;2022-10-31T05:17:03;94983.22;;;12.58;100.00
12775;BME280;6451;42.630;23.382;2022-10-31T05:19:30;94978.19;;;12.72;100.00
12775;BME280;6451;42.630;23.382;2022-10-31T05:21:58;94989.34;;;12.67;100.00
12775;BME280;6451;42.630;23.382;2022-10-31T05:24:25;94994.53;;;12.72;100.00
12775;BME280;6451;42.630;23.382;2022-10-31T05:26:52;94996.38;;;12.56;100.00
12775;BME280;6451;42.630;23.382;2022-10-31T05:29:20;95004.00;;;12.50;100.00
12775;BME280;6451;42.630;23.382;2022-10-31T05:31:47;95002.06;;;12.51;100.00
12775;BME280;6451;42.630;23.382;2022-10-31T05:34:14;94997.44;;;12.27;100.00
12775;BME280;6451;42.630;23.382;2022-10-31T05:36:41;95002.88;;;12.27;100.00
12775;BME280;6451;42.630;23.382;2022-10-31T05:39:08;95008.41;;;12.31;100.00
12775;BME280;6451;42.630;23.382;2022-10-31T05:41:34;95006.59;;;12.35;100.00
12775;BME280;6451;42.630;23.382;2022-10-31T05:44:01;95011.59;;;12.20;100.00
12775;BME280;6451;42.630;23.382;2022-10-31T05:46:29;95020.41;;;12.17;100.00
12775;BME280;6451;42.630;23.382;2022-10-31T05:48:56;95017.13;;;12.24;100.00
12775;BME280;6451;42.630;23.382;2022-10-31T05:51:23;95016.13;;;12.29;100.00
12775;BME280;6451;42.630;23.382;2022-10-31T05:53:50;95016.34;;;12.36;100.00
12775;BME280;6451;42.630;23.382;2022-10-31T05:56:17;95025.66;;;12.59;100.00
12775;BME280;6451;42.630;23.382;2022-10-31T05:58:44;95013.16;;;12.58;100.00
12775;BME280;6451;42.630;23.382;2022-10-31T06:01:10;95014.19;;;12.66;100.00
12775;BME280;6451;42.630;23.382;2022-10-31T06:03:39;95021.88;;;12.64;100.00
12775;BME280;6451;42.630;23.382;2022-10-31T06:06:07;95023.22;;;12.82;100.00
12775;BME280;6451;42.630;23.382;2022-10-31T06:08:34;95016.56;;;12.67;100.00
12775;BME280;6451;42.630;23.382;2022-10-31T06:11:01;95031.06;;;12.84;100.00
12775;BME280;6451;42.630;23.382;2022-10-31T06:13:27;95024.91;;;12.87;100.00
12775;BME280;6451;42.630;23.382;2022-10-31T06:15:55;95036.34;;;13.04;100.00
12775;BME280;6451;42.630;23.382;2022-10-31T06:18:22;95032.38;;;13.02;100.00
12775;BME280;6451;42.630;23.382;2022-10-31T06:20:52;95041.41;;;13.18;100.00
12775;BME280;6451;42.630;23.382;2022-10-31T06:23:20;95047.34;;;13.20;100.00
12775;BME280;6451;42.630;23.382;2022-10-31T06:25:48;95052.41;;;13.34;100.00
12775;BME280;6451;42.630;23.382;2022-10-31T06:28:15;95048.78;;;13.30;100.00
12775;BME280;6451;42.630;23.382;2022-10-31T06:30:42;95055.94;;;13.34;100.00
12775;BME280;6451;42.630;23.382;2022-10-31T06:33:09;95049.59;;;13.58;100.00
12775;BME280;6451;42.630;23.382;2022-10-31T06:35:36;95054.38;;;13.49;100.00
12775;BME280;6451;42.630;23.382;2022-10-31T06:38:04;95059.00;;;13.61;100.00
12775;BME280;6451;42.630;23.382;2022-10-31T06:40:31;95068.72;;;13.74;100.00
12775;BME280;6451;42.630;23.382;2022-10-31T06:42:58;95066.41;;;13.88;100.00
12775;BME280;6451;42.630;23.382;2022-10-31T06:45:26;95063.84;;;13.96;100.00
12775;BME280;6451;42.630;23.382;2022-10-31T06:47:53;95050.97;;;13.80;100.00
12775;BME280;6451;42.630;23.382;2022-10-31T06:50:20;95060.16;;;14.04;100.00
12775;BME280;6451;42.630;23.382;2022-10-31T06:52:50;95060.00;;;14.28;100.00
12775;BME280;6451;42.630;23.382;2022-10-31T06:55:20;95067.06;;;14.45;100.00
12775;BME280;6451;42.630;23.382;2022-10-31T06:57:51;95045.38;;;14.36;100.00
12775;BME280;6451;42.630;23.382;2022-10-31T07:00:18;95057.91;;;14.37;100.00
12775;BME280;6451;42.630;23.382;2022-10-31T07:02:53;95064.31;;;14.45;100.00
12775;BME280;6451;42.630;23.382;2022-10-31T07:05:20;95038.44;;;14.55;100.00
12775;BME280;6451;42.630;23.382;2022-10-31T07:07:46;95067.88;;;14.61;100.00
12775;BME280;6451;42.630;23.382;2022-10-31T07:10:13;95056.38;;;14.40;100.00
12775;BME280;6451;42.630;23.382;2022-10-31T07:12:42;95064.53;;;14.52;100.00
12775;BME280;6451;42.630;23.382;2022-10-31T07:15:09;95057.03;;;14.65;100.00
12775;BME280;6451;42.630;23.382;2022-10-31T07:17:36;95047.69;;;14.66;100.00
12775;BME280;6451;42.630;23.382;2022-10-31T07:20:03;95052.03;;;14.86;100.00
12775;BME280;6451;42.630;23.382;2022-10-31T07:22:34;95035.75;;;14.90;100.00
12775;BME280;6451;42.630;23.382;2022-10-31T07:25:01;95052.81;;;15.02;100.00
12775;BME280;6451;42.630;23.382;2022-10-31T07:27:28;95048.56;;;15.05;100.00
12775;BME280;6451;42.630;23.382;2022-10-31T07:29:56;95036.06;;;15.04;100.00
12775;BME280;6451;42.630;23.382;2022-10-31T07:32:23;95041.38;;;14.97;100.00
12775;BME280;6451;42.630;23.382;2022-10-31T07:34:50;95040.31;;;14.86;100.00
12775;BME280;6451;42.630;23.382;2022-10-31T07:37:18;95018.56;;;14.89;100.00
12775;BME280;6451;42.630;23.382;2022-10-31T07:39:45;95046.47;;;14.98;100.00
12775;BME280;6451;42.630;23.382;2022-10-31T07:42:12;95047.44;;;15.25;100.00
12775;BME280;6451;42.630;23.382;2022-10-31T07:44:38;95043.97;;;15.09;100.00
12775;BME280;6451;42.630;23.382;2022-10-31T07:47:07;95043.06;;;15.21;100.00
12775;BME280;6451;42.630;23.382;2022-10-31T07:49:34;95038.16;;;15.30;100.00
12775;BME280;6451;42.630;23.382;2022-10-31T07:52:02;95042.91;;;15.33;100.00
12775;BME280;6451;42.630;23.382;2022-10-31T07:54:29;95045.78;;;15.21;100.00
12775;BME280;6451;42.630;23.382;2022-10-31T07:56:56;95049.38;;;15.25;100.00
12775;BME280;6451;42.630;23.382;2022-10-31T07:59:23;95049.91;;;15.30;100.00
12775;BME280;6451;42.630;23.382;2022-10-31T08:01:51;95047.47;;;15.45;100.00
12775;BME280;6451;42.630;23.382;2022-10-31T08:04:19;95059.78;;;15.54;100.00
12775;BME280;6451;42.630;23.382;2022-10-31T08:06:46;95045.66;;;15.91;100.00
12775;BME280;6451;42.630;23.382;2022-10-31T08:09:13;95047.88;;;16.05;100.00
12775;BME280;6451;42.630;23.382;2022-10-31T08:11:40;95043.06;;;15.98;100.00
12775;BME280;6451;42.630;23.382;2022-10-31T08:14:07;95038.38;;;15.99;100.00
12775;BME280;6451;42.630;23.382;2022-10-31T08:16:34;95039.28;;;16.06;100.00
12775;BME280;6451;42.630;23.382;2022-10-31T08:19:01;95035.22;;;16.20;100.00
12775;BME280;6451;42.630;23.382;2022-10-31T08:21:29;95040.97;;;16.34;100.00
12775;BME280;6451;42.630;23.382;2022-10-31T08:23:56;95042.97;;;16.37;100.00
12775;BME280;6451;42.630;23.382;2022-10-31T08:26:23;95043.50;;;16.46;100.00
12775;BME280;6451;42.630;23.382;2022-10-31T08:28:50;95048.72;;;16.55;100.00
12775;BME280;6451;42.630;23.382;2022-10-31T08:31:17;95047.34;;;16.64;100.00
12775;BME280;6451;42.630;23.382;2022-10-31T08:33:44;95043.69;;;16.57;100.00
12775;BME280;6451;42.630;23.382;2022-10-31T08:36:11;95027.41;;;16.67;100.00
12775;BME280;6451;42.630;23.382;2022-10-31T08:38:39;95016.22;;;16.53;100.00
12775;BME280;6451;42.630;23.382;2022-10-31T08:41:06;95036.38;;;16.64;100.00
12775;BME280;6451;42.630;23.382;2022-10-31T08:43:33;95032.22;;;16.74;100.00
12775;BME280;6451;42.630;23.382;2022-10-31T08:46:00;95031.84;;;17.02;100.00
12775;BME280;6451;42.630;23.382;2022-10-31T08:48:27;95037.44;;;17.09;100.00
12775;BME280;6451;42.630;23.382;2022-10-31T08:50:56;95030.84;;;17.14;100.00
12775;BME280;6451;42.630;23.382;2022-10-31T08:53:23;95004.78;;;16.97;100.00
12775;BME280;6451;42.630;23.382;2022-10-31T08:55:54;95041.63;;;17.30;100.00
12775;BME280;6451;42.630;23.382;2022-10-31T08:58:22;95034.38;;;17.14;100.00
12775;BME280;6451;42.630;23.382;2022-10-31T09:00:51;95035.38;;;17.29;100.00
12775;BME280;6451;42.630;23.382;2022-10-31T09:03:20;95041.06;;;17.47;100.00
12775;BME280;6451;42.630;23.382;2022-10-31T09:05:48;95013.81;;;17.61;100.00
12775;BME280;6451;42.630;23.382;2022-10-31T09:08:16;95036.63;;;17.69;100.00
12775;BME280;6451;42.630;23.382;2022-10-31T09:10:43;95031.84;;;17.62;100.00
12775;BME280;6451;42.630;23.382;2022-10-31T09:13:13;95024.47;;;17.66;100.00
12775;BME280;6451;42.630;23.382;2022-10-31T09:15:42;95040.13;;;17.96;100.00
12775;BME280;6451;42.630;23.382;2022-10-31T09:18:10;95035.63;;;18.18;100.00
12775;BME280;6451;42.630;23.382;2022-10-31T09:20:38;95036.00;;;18.16;100.00
12775;BME280;6451;42.630;23.382;2022-10-31T09:23:10;95025.06;;;18.23;100.00
12775;BME280;6451;42.630;23.382;2022-10-31T09:25:37;95029.13;;;18.37;100.00
12775;BME280;6451;42.630;23.382;2022-10-31T09:28:05;95028.53;;;18.57;99.66
12775;BME280;6451;42.630;23.382;2022-10-31T09:30:35;95036.84;;;18.65;99.12
12775;BME280;6451;42.630;23.382;2022-10-31T09:33:04;95026.63;;;18.65;98.67
12775;BME280;6451;42.630;23.382;2022-10-31T09:35:31;95012.44;;;18.59;98.13
12775;BME280;6451;42.630;23.382;2022-10-31T09:38:00;95035.03;;;18.83;96.75
12775;BME280;6451;42.630;23.382;2022-10-31T09:40:31;95026.44;;;18.92;95.58
12775;BME280;6451;42.630;23.382;2022-10-31T09:43:07;95034.78;;;19.02;94.75
12775;BME280;6451;42.630;23.382;2022-10-31T09:45:41;95025.38;;;19.07;93.85
12775;BME280;6451;42.630;23.382;2022-10-31T09:48:29;95024.25;;;19.15;93.09
12775;BME280;6451;42.630;23.382;2022-10-31T09:51:03;95029.00;;;19.22;91.51
12775;BME280;6451;42.630;23.382;2022-10-31T09:53:34;95025.09;;;19.26;91.27
12775;BME280;6451;42.630;23.382;2022-10-31T09:56:06;95023.56;;;19.36;90.14
12775;BME280;6451;42.630;23.382;2022-10-31T09:58:40;95019.25;;;19.38;88.70
12775;BME280;6451;42.630;23.382;2022-10-31T10:01:26;95012.59;;;19.43;89.19
12775;BME280;6451;42.630;23.382;2022-10-31T10:03:58;95011.44;;;19.55;87.87
12775;BME280;6451;42.630;23.382;2022-10-31T10:06:29;95006.06;;;19.73;86.48
12775;BME280;6451;42.630;23.382;2022-10-31T10:08:59;95005.22;;;19.61;84.93
12775;BME280;6451;42.630;23.382;2022-10-31T10:11:42;94985.97;;;19.65;82.84
12775;BME280;6451;42.630;23.382;2022-10-31T10:14:26;95002.94;;;19.85;81.86
12775;BME280;6451;42.630;23.382;2022-10-31T10:17:11;94995.88;;;19.91;81.39
12775;BME280;6451;42.630;23.382;2022-10-31T10:19:53;95001.78;;;19.89;79.53
12775;BME280;6451;42.630;23.382;2022-10-31T10:22:30;94993.16;;;20.05;79.95
12775;BME280;6451;42.630;23.382;2022-10-31T10:25:12;94985.31;;;20.11;79.98
12775;BME280;6451;42.630;23.382;2022-10-31T10:27:48;94961.66;;;19.88;80.71
12775;BME280;6451;42.630;23.382;2022-10-31T10:30:18;94989.59;;;20.01;79.98
12775;BME280;6451;42.630;23.382;2022-10-31T10:32:51;94980.59;;;20.18;79.04
12775;BME280;6451;42.630;23.382;2022-10-31T10:35:24;94971.56;;;20.32;78.40
12775;BME280;6451;42.630;23.382;2022-10-31T10:37:56;94917.97;;;19.97;76.19
12775;BME280;6451;42.630;23.382;2022-10-31T10:40:26;94970.38;;;20.40;75.42
12775;BME280;6451;42.630;23.382;2022-10-31T10:42:59;94960.50;;;20.43;75.10
12775;BME280;6451;42.630;23.382;2022-10-31T10:45:49;94960.94;;;20.59;75.66
12775;BME280;6451;42.630;23.382;2022-10-31T10:48:42;94957.75;;;20.61;74.69
12775;BME280;6451;42.630;23.382;2022-10-31T10:51:23;94949.47;;;20.43;73.25
12775;BME280;6451;42.630;23.382;2022-10-31T10:54:05;94907.34;;;20.14;73.53
12775;BME280;6451;42.630;23.382;2022-10-31T10:56:51;94968.41;;;20.41;73.32
12775;BME280;6451;42.630;23.382;2022-10-31T10:59:21;94963.28;;;20.43;73.21
12775;BME280;6451;42.630;23.382;2022-10-31T11:01:50;94964.44;;;20.35;73.91
12775;BME280;6451;42.630;23.382;2022-10-31T11:04:31;94954.19;;;20.39;73.50
12775;BME280;6451;42.630;23.382;2022-10-31T11:07:04;94941.63;;;20.27;73.93
12775;BME280;6451;42.630;23.382;2022-10-31T11:09:32;94946.34;;;20.41;74.07
12775;BME280;6451;42.630;23.382;2022-10-31T11:12:00;94947.53;;;20.65;73.31
12775;BME280;6451;42.630;23.382;2022-10-31T11:14:36;94938.84;;;20.73;73.16
12775;BME280;6451;42.630;23.382;2022-10-31T11:17:14;94939.22;;;20.82;72.73
12775;BME280;6451;42.630;23.382;2022-10-31T11:19:44;94937.63;;;20.96;70.92
12775;BME280;6451;42.630;23.382;2022-10-31T11:22:16;94943.09;;;21.06;70.35
12775;BME280;6451;42.630;23.382;2022-10-31T11:24:43;94929.66;;;21.16;70.04
12775;BME280;6451;42.630;23.382;2022-10-31T11:27:15;94924.53;;;21.25;68.91
12775;BME280;6451;42.630;23.382;2022-10-31T11:29:45;94938.34;;;21.25;67.77
12775;BME280;6451;42.630;23.382;2022-10-31T11:32:18;94921.44;;;21.01;67.52
12775;BME280;6451;42.630;23.382;2022-10-31T11:34:49;94917.91;;;20.90;67.67
12775;BME280;6451;42.630;23.382;2022-10-31T11:37:20;94923.81;;;20.92;67.96
12775;BME280;6451;42.630;23.382;2022-10-31T11:39:50;94927.38;;;20.96;68.13
12775;BME280;6451;42.630;23.382;2022-10-31T11:42:21;94920.28;;;20.95;67.85
12775;BME280;6451;42.630;23.382;2022-10-31T11:44:50;94923.44;;;20.97;68.07
12775;BME280;6451;42.630;23.382;2022-10-31T11:47:23;94913.22;;;20.87;67.95
12775;BME280;6451;42.630;23.382;2022-10-31T11:49:53;94910.03;;;20.96;68.29
12775;BME280;6451;42.630;23.382;2022-10-31T11:52:25;94908.03;;;21.03;67.20
12775;BME280;6451;42.630;23.382;2022-10-31T11:54:55;94909.59;;;21.04;67.53
12775;BME280;6451;42.630;23.382;2022-10-31T11:57:23;94908.38;;;21.20;66.98
12775;BME280;6451;42.630;23.382;2022-10-31T11:59:52;94905.25;;;21.10;66.94
12775;BME280;6451;42.630;23.382;2022-10-31T12:02:20;94906.78;;;21.29;66.07
12775;BME280;6451;42.630;23.382;2022-10-31T12:04:54;94896.53;;;21.16;65.58
12775;BME280;6451;42.630;23.382;2022-10-31T12:07:23;94902.81;;;21.27;65.87
12775;BME280;6451;42.630;23.382;2022-10-31T12:09:51;94903.25;;;21.15;66.00
12775;BME280;6451;42.630;23.382;2022-10-31T12:12:37;94902.44;;;21.28;66.09
12775;BME280;6451;42.630;23.382;2022-10-31T12:15:28;94903.66;;;21.17;65.72
12775;BME280;6451;42.630;23.382;2022-10-31T12:18:09;94893.75;;;21.30;65.42
12775;BME280;6451;42.630;23.382;2022-10-31T12:20:48;94891.78;;;21.34;65.30
12775;BME280;6451;42.630;23.382;2022-10-31T12:23:24;94836.69;;;20.98;65.11
12775;BME280;6451;42.630;23.382;2022-10-31T12:26:10;94891.34;;;21.39;64.87
12775;BME280;6451;42.630;23.382;2022-10-31T12:28:50;94901.97;;;21.48;65.11
12775;BME280;6451;42.630;23.382;2022-10-31T12:31:34;94886.19;;;21.48;64.57
12775;BME280;6451;42.630;23.382;2022-10-31T12:34:23;94899.50;;;21.64;64.12
12775;BME280;6451;42.630;23.382;2022-10-31T12:37:00;94880.88;;;21.75;63.54
12775;BME280;6451;42.630;23.382;2022-10-31T12:39:41;94893.13;;;21.78;63.22
12775;BME280;6451;42.630;23.382;2022-10-31T12:42:17;94824.69;;;21.37;62.78
12775;BME280;6451;42.630;23.382;2022-10-31T12:45:04;94898.22;;;21.79;62.12
12775;BME280;6451;42.630;23.382;2022-10-31T12:47:55;94882.81;;;21.85;61.85
12775;BME280;6451;42.630;23.382;2022-10-31T12:50:34;94883.97;;;21.84;61.67
12775;BME280;6451;42.630;23.382;2022-10-31T12:53:19;94893.41;;;21.94;61.51
12775;BME280;6451;42.630;23.382;2022-10-31T12:55:56;94830.22;;;21.41;61.71
12775;BME280;6451;42.630;23.382;2022-10-31T12:58:30;94880.50;;;21.73;61.87
12775;BME280;6451;42.630;23.382;2022-10-31T13:01:07;94899.34;;;21.89;61.44
12775;BME280;6451;42.630;23.382;2022-10-31T13:03:42;94904.50;;;21.83;61.74
12775;BME280;6451;42.630;23.382;2022-10-31T13:06:14;94901.00;;;21.79;61.71
12775;BME280;6451;42.630;23.382;2022-10-31T13:08:47;94890.63;;;21.94;61.24
12775;BME280;6451;42.630;23.382;2022-10-31T13:11:18;94901.75;;;21.83;61.52
12775;BME280;6451;42.630;23.382;2022-10-31T13:13:56;94845.47;;;21.63;61.40
12775;BME280;6451;42.630;23.382;2022-10-31T13:16:29;94900.03;;;22.00;61.13
12775;BME280;6451;42.630;23.382;2022-10-31T13:18:59;94834.09;;;21.50;60.88